createdAt,value
2023-01-06T00:01:21.240Z,100961.16
2023-01-06T00:06:17.475Z,101107.13
2023-01-06T00:11:13.656Z,100974.56
2023-01-06T00:16:07.952Z,101089.09
2023-01-06T00:21:04.258Z,101135.72
2023-01-06T00:25:58.979Z,101111.66
2023-01-06T00:30:57.417Z,101068.72
2023-01-06T00:35:53.825Z,101168.91
2023-01-06T00:40:47.109Z,101124.31
2023-01-06T00:45:43.804Z,101051.53
2023-01-06T00:50:37.113Z,101151.06
2023-01-06T00:55:30.521Z,101054.19
2023-01-06T01:00:24.249Z,101167.75
2023-01-06T01:05:19.661Z,101172.56
2023-01-06T01:10:13.494Z,101143.88
2023-01-06T01:15:07.558Z,101011.91
2023-01-06T01:20:02.225Z,101130.16
2023-01-06T01:24:59.939Z,101210.13
2023-01-06T01:29:58.208Z,101171.75
2023-01-06T01:34:51.812Z,101211.47
2023-01-06T01:39:48.195Z,101041.28
2023-01-06T01:45:05.881Z,101094.03
2023-01-06T01:50:03.360Z,101180.78
2023-01-06T01:54:57.882Z,101135.84
2023-01-06T01:59:51.976Z,101208.09
2023-01-06T02:04:52.019Z,101203.53
2023-01-06T02:09:52.867Z,101175.28
2023-01-06T02:14:46.147Z,101106.84
2023-01-06T02:20:06.225Z,101226.50
2023-01-06T02:25:34.142Z,101117.34
2023-01-06T02:30:55.299Z,101125.28
2023-01-06T02:36:02.368Z,101254.19
2023-01-06T02:41:06.649Z,101259.47
2023-01-06T02:46:09.335Z,101268.22
2023-01-06T02:51:11.008Z,101261.53
2023-01-06T02:56:05.280Z,101132.19
2023-01-06T03:01:06.059Z,101247.50
2023-01-06T03:06:07.628Z,101210.03
2023-01-06T03:11:03.122Z,101279.91
2023-01-06T03:15:59.694Z,101258.06
2023-01-06T03:20:57.716Z,101238.84
2023-01-06T03:25:52.713Z,101177.91
2023-01-06T03:30:56.832Z,101236.31
2023-01-06T03:36:02.569Z,101271.16
2023-01-06T03:41:06.390Z,101298.88
2023-01-06T03:46:12.924Z,101080.75
2023-01-06T03:51:17.673Z,101293.06
2023-01-06T03:56:26.174Z,101117.84
2023-01-06T04:01:21.564Z,101228.41
2023-01-06T04:06:15.791Z,101229.47
2023-01-06T04:11:29.883Z,101314.28
2023-01-06T04:16:25.034Z,101297.50
2023-01-06T04:21:18.844Z,101199.81
2023-01-06T04:26:12.375Z,101223.28
2023-01-06T04:31:13.217Z,101090.41
2023-01-06T04:36:10.297Z,101209.03
2023-01-06T04:41:07.154Z,101320.94
2023-01-06T04:46:00.695Z,101246.41
2023-01-06T04:51:02.064Z,101343.50
2023-01-06T04:55:56.841Z,101347.13
2023-01-06T05:00:52.127Z,101262.53
2023-01-06T05:05:45.721Z,101319.97
2023-01-06T05:10:39.067Z,101359.59
2023-01-06T05:15:33.771Z,101314.38
2023-01-06T05:20:27.045Z,101169.66
2023-01-06T05:25:21.051Z,101377.84
2023-01-06T05:30:14.939Z,101383.94
2023-01-06T05:35:10.576Z,101295.47
2023-01-06T05:40:03.891Z,101383.84
2023-01-06T05:44:57.323Z,101378.63
2023-01-06T05:49:50.502Z,101318.19
2023-01-06T05:54:45.101Z,101397.66
2023-01-06T05:59:45.885Z,101392.72
2023-01-06T06:05:24.663Z,101203.94
2023-01-06T06:10:19.970Z,101390.22
2023-01-06T06:15:13.219Z,101307.00
2023-01-06T06:20:09.709Z,101296.91
2023-01-06T06:25:06.528Z,101402.41
2023-01-06T06:30:04.224Z,101430.31
2023-01-06T06:34:57.514Z,101442.25
2023-01-06T06:39:50.822Z,101373.81
2023-01-06T06:44:44.134Z,101336.75
2023-01-06T06:49:38.829Z,101380.31
2023-01-06T06:54:32.303Z,101483.25
2023-01-06T06:59:25.576Z,101443.22
2023-01-06T07:04:18.904Z,101287.16
2023-01-06T07:09:13.570Z,101465.59
2023-01-06T07:14:06.812Z,101419.31
2023-01-06T07:20:04.500Z,101457.91
2023-01-06T07:24:59.089Z,101501.66
2023-01-06T07:29:52.313Z,101477.25
2023-01-06T07:34:45.524Z,101450.28
2023-01-06T07:39:38.855Z,101466.44
2023-01-06T07:44:33.614Z,101474.06
2023-01-06T07:49:26.791Z,101478.19
2023-01-06T07:54:20.182Z,101509.94
2023-01-06T07:59:13.465Z,101476.16
2023-01-06T08:04:08.144Z,101505.81
2023-01-06T08:09:03.144Z,101421.38
2023-01-06T08:13:56.442Z,101501.91
2023-01-06T08:18:50.060Z,101483.84
2023-01-06T08:23:45.259Z,101481.88
2023-01-06T08:28:38.807Z,101543.66
2023-01-06T08:33:32.110Z,101511.47
2023-01-06T08:38:25.450Z,101537.06
2023-01-06T08:43:20.509Z,101580.91
2023-01-06T08:48:14.043Z,101551.00
2023-01-06T08:53:07.625Z,101567.22
2023-01-06T08:58:01.058Z,101504.00
2023-01-06T09:02:55.821Z,101485.69
2023-01-06T09:07:50.769Z,101574.97
2023-01-06T09:12:44.629Z,101609.34
2023-01-06T09:17:38.564Z,101500.16
2023-01-06T09:22:33.580Z,101522.00
2023-01-06T09:27:26.898Z,101545.41
2023-01-06T09:38:54.773Z,101553.66
2023-01-06T09:43:53.684Z,101510.81
2023-01-06T09:48:55.238Z,101585.03
2023-01-06T09:53:54.355Z,101543.34
2023-01-06T09:58:56.951Z,101541.56
2023-01-06T10:03:50.374Z,101385.22
2023-01-06T10:08:54.012Z,101466.66
2023-01-06T10:14:01.626Z,101549.94
2023-01-06T10:19:04.465Z,101471.63
2023-01-06T10:24:35.486Z,101475.81
2023-01-06T10:29:34.034Z,101552.88
2023-01-06T10:34:29.964Z,101428.19
2023-01-06T10:39:26.578Z,101466.88
2023-01-06T10:44:21.182Z,101510.38
2023-01-06T10:49:18.994Z,101554.44
2023-01-06T10:54:16.503Z,101457.41
2023-01-06T10:59:13.040Z,101444.00
2023-01-06T11:04:12.245Z,101550.63
2023-01-06T11:09:33.828Z,101480.94
2023-01-06T11:14:31.197Z,101515.63
2023-01-06T11:19:35.052Z,101443.53
2023-01-06T11:24:31.701Z,101505.81
2023-01-06T11:29:31.557Z,101494.56
2023-01-06T11:34:29.079Z,101528.84
2023-01-06T11:39:27.946Z,101514.66
2023-01-06T11:44:31.475Z,101531.09
2023-01-06T11:49:29.753Z,101464.19
2023-01-06T11:54:26.665Z,101534.66
2023-01-06T11:59:21.004Z,101529.44
2023-01-06T12:04:24.031Z,101385.03
2023-01-06T12:09:22.934Z,101510.94
2023-01-06T12:14:28.473Z,101511.56
2023-01-06T12:19:28.196Z,101547.19
2023-01-06T12:24:22.506Z,101481.34
2023-01-06T12:29:20.292Z,101510.91
2023-01-06T12:34:20.839Z,101432.38
2023-01-06T12:39:24.995Z,101481.84
2023-01-06T12:44:37.623Z,101549.63
2023-01-06T12:49:38.958Z,101548.06
2023-01-06T12:54:38.795Z,101484.44
2023-01-06T12:59:45.590Z,101557.69
2023-01-06T13:05:03.439Z,101520.28
2023-01-06T13:10:08.651Z,101559.38
2023-01-06T13:15:07.423Z,101558.53
2023-01-06T13:20:03.866Z,101538.06
2023-01-06T13:25:24.173Z,101584.41
2023-01-06T13:30:43.768Z,101590.88
2023-01-06T13:35:56.535Z,101587.72
2023-01-06T13:40:52.945Z,101599.41
2023-01-06T13:45:52.200Z,101559.56
2023-01-06T13:50:45.979Z,101593.81
2023-01-06T13:55:40.585Z,101582.13
2023-01-06T14:00:35.289Z,101585.78
2023-01-06T14:05:54.040Z,101634.47
2023-01-06T14:10:49.353Z,101595.06
2023-01-06T14:15:55.577Z,101638.16
2023-01-06T14:20:49.029Z,101646.59
2023-01-06T14:25:44.613Z,101651.34
2023-01-06T14:30:38.225Z,101657.81
2023-01-06T14:35:37.196Z,101626.59
2023-01-06T14:40:34.147Z,101669.19
2023-01-06T14:45:29.889Z,101640.78
2023-01-06T14:50:29.829Z,101662.69
2023-01-06T14:55:34.158Z,101640.50
2023-01-06T15:00:30.151Z,101640.69
2023-01-06T15:05:29.593Z,101646.53
2023-01-06T15:10:23.280Z,101669.25
2023-01-06T15:15:24.101Z,101518.81
2023-01-06T15:20:27.877Z,101670.41
2023-01-06T15:25:24.519Z,101694.53
2023-01-06T15:30:21.230Z,101630.78
2023-01-06T15:35:20.945Z,101734.50
2023-01-06T15:40:22.215Z,101713.31
2023-01-06T15:45:30.697Z,101746.38
2023-01-06T15:50:27.133Z,101736.91
2023-01-06T15:55:25.861Z,101758.69
2023-01-06T16:00:23.473Z,101724.03
2023-01-06T16:05:43.465Z,101767.94
2023-01-06T16:10:38.956Z,101777.53
2023-01-06T16:15:36.340Z,101751.16
2023-01-06T16:20:29.880Z,101776.06
2023-01-06T16:25:27.575Z,101758.66
2023-01-06T16:30:24.378Z,101788.66
2023-01-06T16:35:19.945Z,101768.75
2023-01-06T16:40:14.324Z,101789.44
2023-01-06T16:45:18.786Z,101792.16
2023-01-06T16:50:16.888Z,101793.28
2023-01-06T16:55:25.208Z,101810.25
2023-01-06T17:00:22.384Z,101812.16
2023-01-06T17:05:27.182Z,101793.03
2023-01-06T17:10:24.372Z,101720.31
2023-01-06T17:15:20.437Z,101843.25
2023-01-06T17:20:14.233Z,101843.59
2023-01-06T17:25:14.653Z,101781.66
2023-01-06T17:30:08.736Z,101855.13
2023-01-06T17:35:04.134Z,101824.91
2023-01-06T17:39:58.183Z,101847.19
2023-01-06T17:44:55.291Z,101822.81
2023-01-06T17:49:52.066Z,101897.53
2023-01-06T17:55:11.278Z,101877.66
2023-01-06T18:00:17.646Z,101848.31
2023-01-06T18:05:48.635Z,101913.06
2023-01-06T18:10:44.896Z,101842.56
2023-01-06T18:15:38.330Z,101936.03
2023-01-06T18:20:32.557Z,101953.13
2023-01-06T18:25:27.611Z,101910.88
2023-01-06T18:30:27.968Z,101878.97
2023-01-06T18:35:22.934Z,101965.00
2023-01-06T18:40:20.228Z,101914.97
2023-01-06T18:45:24.524Z,101848.25
2023-01-06T18:50:34.780Z,101929.00
2023-01-06T18:55:34.403Z,101959.25
2023-01-06T19:00:36.805Z,101953.53
2023-01-06T19:05:30.160Z,101912.38
2023-01-06T19:10:27.928Z,101893.84
2023-01-06T19:15:25.229Z,101951.97
2023-01-06T19:20:23.020Z,101925.28
2023-01-06T19:25:34.948Z,101871.78
2023-01-06T19:30:43.399Z,101943.13
2023-01-06T19:35:38.205Z,101875.13
2023-01-06T19:40:35.436Z,101930.56
2023-01-06T19:45:32.566Z,101841.88
2023-01-06T19:50:27.618Z,101882.78
2023-01-06T19:55:25.095Z,101768.06
2023-01-06T20:00:26.756Z,101963.88
2023-01-06T20:05:20.205Z,101920.81
2023-01-06T20:10:13.526Z,101918.13
2023-01-06T20:15:09.493Z,101971.50
2023-01-06T20:20:06.078Z,101923.75
2023-01-06T20:24:59.419Z,101938.16
2023-01-06T20:29:52.945Z,101933.53
2023-01-06T20:34:49.672Z,101978.72
2023-01-06T20:39:42.945Z,101934.19
2023-01-06T20:44:36.156Z,101970.59
2023-01-06T20:49:29.408Z,101954.06
2023-01-06T20:54:23.978Z,101969.72
2023-01-06T20:59:17.127Z,101976.66
2023-01-06T21:04:10.446Z,101977.69
2023-01-06T21:09:03.756Z,101932.97
2023-01-06T21:13:58.402Z,101937.69
2023-01-06T21:18:51.704Z,101944.91
2023-01-06T21:23:44.973Z,101927.13
2023-01-06T21:28:40.470Z,101973.13
2023-01-06T21:33:35.315Z,101889.59
2023-01-06T21:38:28.637Z,101979.69
2023-01-06T21:43:21.911Z,101987.28
2023-01-06T21:48:15.169Z,101967.34
2023-01-06T21:53:11.580Z,101965.97
2023-01-06T21:58:05.169Z,101962.25
2023-01-06T22:02:59.149Z,101994.75
2023-01-06T22:07:54.037Z,101890.81
2023-01-06T22:12:52.209Z,102004.78
2023-01-06T22:17:45.496Z,101979.00
2023-01-06T22:22:39.594Z,102023.44
2023-01-06T22:27:34.087Z,101958.84
2023-01-06T22:32:29.257Z,101970.91
2023-01-06T22:37:22.639Z,101916.63
2023-01-06T22:42:16.054Z,101927.94
2023-01-06T22:47:09.601Z,101926.91
2023-01-06T22:52:05.497Z,101959.19
2023-01-06T22:56:59.502Z,101926.44
2023-01-06T23:01:52.955Z,102000.41
2023-01-06T23:06:46.479Z,101984.53
2023-01-06T23:11:41.892Z,101958.94
2023-01-06T23:16:36.899Z,101898.03
2023-01-06T23:21:34.350Z,102005.66
2023-01-06T23:26:29.921Z,101963.00
2023-01-06T23:31:27.011Z,102009.50
2023-01-06T23:36:21.699Z,101990.06
2023-01-06T23:41:16.733Z,101977.25
2023-01-06T23:46:12.323Z,102006.06
2023-01-06T23:51:08.650Z,101997.16
2023-01-06T23:56:03.984Z,102004.94
